sensor_id;sensor_type;location;lat;lon;timestamp;temperature;humidity
2633;DHT22;1326;48.692;16.870;2023-09-08T00:00:11;16.40;99.90
2633;DHT22;1326;48.692;16.870;2023-09-08T00:02:39;16.40;99.90
2633;DHT22;1326;48.692;16.870;2023-09-08T00:05:06;16.40;99.90
2633;DHT22;1326;48.692;16.870;2023-09-08T00:07:34;16.40;99.90
2633;DHT22;1326;48.692;16.870;2023-09-08T00:10:01;16.50;99.90
2633;DHT22;1326;48.692;16.870;2023-09-08T00:12:29;16.40;99.90
2633;DHT22;1326;48.692;16.870;2023-09-08T00:14:57;16.40;99.90
2633;DHT22;1326;48.692;16.870;2023-09-08T00:17:24;16.30;99.90
2633;DHT22;1326;48.692;16.870;2023-09-08T00:19:52;16.10;99.90
2633;DHT22;1326;48.692;16.870;2023-09-08T00:22:19;15.90;99.90
2633;DHT22;1326;48.692;16.870;2023-09-08T00:24:47;15.90;99.90
2633;DHT22;1326;48.692;16.870;2023-09-08T00:27:15;15.90;99.90
2633;DHT22;1326;48.692;16.870;2023-09-08T00:29:42;16.00;99.90
2633;DHT22;1326;48.692;16.870;2023-09-08T00:32:10;16.00;99.90
2633;DHT22;1326;48.692;16.870;2023-09-08T00:34:39;16.00;99.90
2633;DHT22;1326;48.692;16.870;2023-09-08T00:37:06;16.00;99.90
2633;DHT22;1326;48.692;16.870;2023-09-08T00:39:37;16.00;99.90
2633;DHT22;1326;48.692;16.870;2023-09-08T00:42:05;15.90;99.90
2633;DHT22;1326;48.692;16.870;2023-09-08T00:44:34;15.90;99.90
2633;DHT22;1326;48.692;16.870;2023-09-08T00:47:02;15.90;99.90
2633;DHT22;1326;48.692;16.870;2023-09-08T00:49:29;15.80;99.90
2633;DHT22;1326;48.692;16.870;2023-09-08T00:51:57;15.80;99.90
2633;DHT22;1326;48.692;16.870;2023-09-08T00:54:25;15.70;99.90
2633;DHT22;1326;48.692;16.870;2023-09-08T00:56:55;15.70;99.90
2633;DHT22;1326;48.692;16.870;2023-09-08T00:59:26;15.60;99.90
2633;DHT22;1326;48.692;16.870;2023-09-08T01:01:53;15.60;99.90
2633;DHT22;1326;48.692;16.870;2023-09-08T01:04:22;15.60;99.90
2633;DHT22;1326;48.692;16.870;2023-09-08T01:06:50;15.60;99.90
2633;DHT22;1326;48.692;16.870;2023-09-08T01:09:18;15.60;99.90
2633;DHT22;1326;48.692;16.870;2023-09-08T01:11:46;15.60;99.90
2633;DHT22;1326;48.692;16.870;2023-09-08T01:14:14;15.60;99.90
2633;DHT22;1326;48.692;16.870;2023-09-08T01:16:43;15.70;99.90
2633;DHT22;1326;48.692;16.870;2023-09-08T01:19:13;15.60;99.90
2633;DHT22;1326;48.692;16.870;2023-09-08T01:21:53;15.60;99.90
2633;DHT22;1326;48.692;16.870;2023-09-08T01:27:03;15.60;99.90
2633;DHT22;1326;48.692;16.870;2023-09-08T01:29:34;15.70;99.90
2633;DHT22;1326;48.692;16.870;2023-09-08T01:32:02;15.70;99.90
2633;DHT22;1326;48.692;16.870;2023-09-08T01:34:31;15.70;99.90
2633;DHT22;1326;48.692;16.870;2023-09-08T01:36:59;15.70;99.90
2633;DHT22;1326;48.692;16.870;2023-09-08T01:41:59;15.70;99.90
2633;DHT22;1326;48.692;16.870;2023-09-08T01:44:26;15.70;99.90
2633;DHT22;1326;48.692;16.870;2023-09-08T01:46:54;15.60;99.90
2633;DHT22;1326;48.692;16.870;2023-09-08T01:49:24;15.60;99.90
2633;DHT22;1326;48.692;16.870;2023-09-08T01:51:52;15.50;99.90
2633;DHT22;1326;48.692;16.870;2023-09-08T01:54:20;15.50;99.90
2633;DHT22;1326;48.692;16.870;2023-09-08T01:56:47;15.50;99.90
2633;DHT22;1326;48.692;16.870;2023-09-08T01:59:15;15.50;99.90
2633;DHT22;1326;48.692;16.870;2023-09-08T02:01:42;15.50;99.90
2633;DHT22;1326;48.692;16.870;2023-09-08T02:04:10;15.50;99.90
2633;DHT22;1326;48.692;16.870;2023-09-08T02:06:37;15.50;99.90
2633;DHT22;1326;48.692;16.870;2023-09-08T02:09:05;15.50;99.90
2633;DHT22;1326;48.692;16.870;2023-09-08T02:11:33;15.50;99.90
2633;DHT22;1326;48.692;16.870;2023-09-08T02:14:00;15.40;99.90
2633;DHT22;1326;48.692;16.870;2023-09-08T02:16:28;15.40;99.90
2633;DHT22;1326;48.692;16.870;2023-09-08T02:18:55;15.30;99.90
2633;DHT22;1326;48.692;16.870;2023-09-08T02:21:23;15.30;99.90
2633;DHT22;1326;48.692;16.870;2023-09-08T02:23:50;15.30;99.90
2633;DHT22;1326;48.692;16.870;2023-09-08T02:26:18;15.40;99.90
2633;DHT22;1326;48.692;16.870;2023-09-08T02:28:45;15.40;99.90
2633;DHT22;1326;48.692;16.870;2023-09-08T02:31:13;15.40;99.90
2633;DHT22;1326;48.692;16.870;2023-09-08T02:33:40;15.30;99.90
2633;DHT22;1326;48.692;16.870;2023-09-08T02:36:08;15.30;99.90
2633;DHT22;1326;48.692;16.870;2023-09-08T02:38:35;15.40;99.90
2633;DHT22;1326;48.692;16.870;2023-09-08T02:41:04;15.30;99.90
2633;DHT22;1326;48.692;16.870;2023-09-08T02:43:31;15.30;99.90
2633;DHT22;1326;48.692;16.870;2023-09-08T02:45:59;15.30;99.90
2633;DHT22;1326;48.692;16.870;2023-09-08T02:48:26;15.30;99.90
2633;DHT22;1326;48.692;16.870;2023-09-08T02:50:54;15.30;99.90
2633;DHT22;1326;48.692;16.870;2023-09-08T02:53:22;15.30;99.90
2633;DHT22;1326;48.692;16.870;2023-09-08T02:55:50;15.20;99.90
2633;DHT22;1326;48.692;16.870;2023-09-08T02:58:18;15.20;99.90
2633;DHT22;1326;48.692;16.870;2023-09-08T03:00:45;15.20;99.90
2633;DHT22;1326;48.692;16.870;2023-09-08T03:03:13;15.10;99.90
2633;DHT22;1326;48.692;16.870;2023-09-08T03:05:40;15.00;99.90
2633;DHT22;1326;48.692;16.870;2023-09-08T03:08:08;15.00;99.90
2633;DHT22;1326;48.692;16.870;2023-09-08T03:10:35;15.00;99.90
2633;DHT22;1326;48.692;16.870;2023-09-08T03:13:06;15.00;99.90
2633;DHT22;1326;48.692;16.870;2023-09-08T03:15:34;15.10;99.90
2633;DHT22;1326;48.692;16.870;2023-09-08T03:18:02;15.10;99.90
2633;DHT22;1326;48.692;16.870;2023-09-08T03:20:30;15.00;99.90
2633;DHT22;1326;48.692;16.870;2023-09-08T03:22:57;15.00;99.90
2633;DHT22;1326;48.692;16.870;2023-09-08T03:25:25;15.00;99.90
2633;DHT22;1326;48.692;16.870;2023-09-08T03:27:53;15.00;99.90
2633;DHT22;1326;48.692;16.870;2023-09-08T03:30:20;15.00;99.90
2633;DHT22;1326;48.692;16.870;2023-09-08T03:32:48;15.00;99.90
2633;DHT22;1326;48.692;16.870;2023-09-08T03:35:15;15.00;99.90
2633;DHT22;1326;48.692;16.870;2023-09-08T03:37:43;15.00;99.90
2633;DHT22;1326;48.692;16.870;2023-09-08T03:40:11;15.00;99.90
2633;DHT22;1326;48.692;16.870;2023-09-08T03:42:38;15.00;99.90
2633;DHT22;1326;48.692;16.870;2023-09-08T03:45:08;15.00;99.90
2633;DHT22;1326;48.692;16.870;2023-09-08T03:47:36;15.00;99.90
2633;DHT22;1326;48.692;16.870;2023-09-08T03:50:06;15.00;99.90
2633;DHT22;1326;48.692;16.870;2023-09-08T03:52:33;15.00;99.90
2633;DHT22;1326;48.692;16.870;2023-09-08T03:55:01;14.90;99.90
2633;DHT22;1326;48.692;16.870;2023-09-08T03:57:29;14.80;99.90
2633;DHT22;1326;48.692;16.870;2023-09-08T03:59:56;14.90;99.90
2633;DHT22;1326;48.692;16.870;2023-09-08T04:02:24;14.90;99.90
2633;DHT22;1326;48.692;16.870;2023-09-08T04:04:51;14.90;99.90
2633;DHT22;1326;48.692;16.870;2023-09-08T04:07:19;14.90;99.90
2633;DHT22;1326;48.692;16.870;2023-09-08T04:09:46;14.90;99.90
2633;DHT22;1326;48.692;16.870;2023-09-08T04:12:14;15.00;99.90
2633;DHT22;1326;48.692;16.870;2023-09-08T04:14:42;14.90;99.90
2633;DHT22;1326;48.692;16.870;2023-09-08T04:17:09;14.90;99.90
2633;DHT22;1326;48.692;16.870;2023-09-08T04:19:37;14.80;99.90
2633;DHT22;1326;48.692;16.870;2023-09-08T04:22:04;14.80;99.90
2633;DHT22;1326;48.692;16.870;2023-09-08T04:24:36;14.80;99.90
2633;DHT22;1326;48.692;16.870;2023-09-08T04:27:04;14.80;99.90
2633;DHT22;1326;48.692;16.870;2023-09-08T04:29:32;14.90;99.90
2633;DHT22;1326;48.692;16.870;2023-09-08T04:32:00;14.80;99.90
2633;DHT22;1326;48.692;16.870;2023-09-08T04:34:28;14.80;99.90
2633;DHT22;1326;48.692;16.870;2023-09-08T04:36:55;14.80;99.90
2633;DHT22;1326;48.692;16.870;2023-09-08T04:39:23;14.80;99.90
2633;DHT22;1326;48.692;16.870;2023-09-08T04:41:50;14.80;99.90
2633;DHT22;1326;48.692;16.870;2023-09-08T04:44:18;14.80;99.90
2633;DHT22;1326;48.692;16.870;2023-09-08T04:46:45;14.80;99.90
2633;DHT22;1326;48.692;16.870;2023-09-08T04:49:13;14.80;99.90
2633;DHT22;1326;48.692;16.870;2023-09-08T04:51:40;14.80;99.90
2633;DHT22;1326;48.692;16.870;2023-09-08T04:54:08;14.80;99.90
2633;DHT22;1326;48.692;16.870;2023-09-08T04:56:35;14.80;99.90
2633;DHT22;1326;48.692;16.870;2023-09-08T04:59:03;14.80;99.90
2633;DHT22;1326;48.692;16.870;2023-09-08T05:01:30;14.80;99.90
2633;DHT22;1326;48.692;16.870;2023-09-08T05:03:59;14.90;99.90
2633;DHT22;1326;48.692;16.870;2023-09-08T05:06:27;14.90;99.90
2633;DHT22;1326;48.692;16.870;2023-09-08T05:08:55;14.90;99.90
2633;DHT22;1326;48.692;16.870;2023-09-08T05:11:22;14.90;99.90
2633;DHT22;1326;48.692;16.870;2023-09-08T05:13:50;15.00;99.90
2633;DHT22;1326;48.692;16.870;2023-09-08T05:16:17;15.00;99.90
2633;DHT22;1326;48.692;16.870;2023-09-08T05:18:47;15.00;99.90
2633;DHT22;1326;48.692;16.870;2023-09-08T05:21:14;15.10;99.90
2633;DHT22;1326;48.692;16.870;2023-09-08T05:23:42;15.10;99.90
2633;DHT22;1326;48.692;16.870;2023-09-08T05:26:09;15.10;99.90
2633;DHT22;1326;48.692;16.870;2023-09-08T05:28:37;15.10;99.90
2633;DHT22;1326;48.692;16.870;2023-09-08T05:31:04;15.20;99.90
2633;DHT22;1326;48.692;16.870;2023-09-08T05:33:32;15.20;99.90
2633;DHT22;1326;48.692;16.870;2023-09-08T05:35:59;15.30;99.90
2633;DHT22;1326;48.692;16.870;2023-09-08T05:38:27;15.40;99.90
2633;DHT22;1326;48.692;16.870;2023-09-08T05:40:55;15.40;99.90
2633;DHT22;1326;48.692;16.870;2023-09-08T05:43:24;15.50;99.90
2633;DHT22;1326;48.692;16.870;2023-09-08T05:45:52;15.60;99.90
2633;DHT22;1326;48.692;16.870;2023-09-08T05:48:20;15.70;99.90
2633;DHT22;1326;48.692;16.870;2023-09-08T05:50:47;15.80;99.90
2633;DHT22;1326;48.692;16.870;2023-09-08T05:53:15;15.90;99.90
2633;DHT22;1326;48.692;16.870;2023-09-08T05:55:42;16.00;99.90
2633;DHT22;1326;48.692;16.870;2023-09-08T05:58:10;16.10;99.90
2633;DHT22;1326;48.692;16.870;2023-09-08T06:00:37;16.20;99.90
2633;DHT22;1326;48.692;16.870;2023-09-08T06:03:05;16.30;99.90
2633;DHT22;1326;48.692;16.870;2023-09-08T06:05:33;16.40;99.90
2633;DHT22;1326;48.692;16.870;2023-09-08T06:08:00;16.40;99.90
2633;DHT22;1326;48.692;16.870;2023-09-08T06:10:28;16.50;99.90
2633;DHT22;1326;48.692;16.870;2023-09-08T06:12:57;16.50;99.90
2633;DHT22;1326;48.692;16.870;2023-09-08T06:15:24;16.60;99.90
2633;DHT22;1326;48.692;16.870;2023-09-08T06:17:52;16.70;99.90
2633;DHT22;1326;48.692;16.870;2023-09-08T06:20:19;16.70;99.90
2633;DHT22;1326;48.692;16.870;2023-09-08T06:22:48;16.80;99.90
2633;DHT22;1326;48.692;16.870;2023-09-08T06:25:16;16.90;99.90
2633;DHT22;1326;48.692;16.870;2023-09-08T06:27:43;17.00;99.90
2633;DHT22;1326;48.692;16.870;2023-09-08T06:30:11;17.10;99.90
2633;DHT22;1326;48.692;16.870;2023-09-08T06:32:42;17.20;99.90
2633;DHT22;1326;48.692;16.870;2023-09-08T06:35:11;17.30;99.90
2633;DHT22;1326;48.692;16.870;2023-09-08T06:37:39;17.40;99.90
2633;DHT22;1326;48.692;16.870;2023-09-08T06:40:07;17.50;99.90
2633;DHT22;1326;48.692;16.870;2023-09-08T06:42:35;17.60;99.90
2633;DHT22;1326;48.692;16.870;2023-09-08T06:45:02;17.70;99.90
2633;DHT22;1326;48.692;16.870;2023-09-08T06:47:30;17.80;99.90
2633;DHT22;1326;48.692;16.870;2023-09-08T06:49:57;17.90;99.90
2633;DHT22;1326;48.692;16.870;2023-09-08T06:52:25;18.00;99.90
2633;DHT22;1326;48.692;16.870;2023-09-08T06:54:52;18.10;99.90
2633;DHT22;1326;48.692;16.870;2023-09-08T06:57:20;18.20;99.90
2633;DHT22;1326;48.692;16.870;2023-09-08T06:59:48;18.20;99.90
2633;DHT22;1326;48.692;16.870;2023-09-08T07:02:15;18.30;99.90
2633;DHT22;1326;48.692;16.870;2023-09-08T07:04:43;18.40;99.90
2633;DHT22;1326;48.692;16.870;2023-09-08T07:07:10;18.40;99.90
2633;DHT22;1326;48.692;16.870;2023-09-08T07:09:38;18.50;99.90
2633;DHT22;1326;48.692;16.870;2023-09-08T07:12:06;18.60;99.90
2633;DHT22;1326;48.692;16.870;2023-09-08T07:14:34;18.70;99.90
2633;DHT22;1326;48.692;16.870;2023-09-08T07:17:01;18.80;99.90
2633;DHT22;1326;48.692;16.870;2023-09-08T07:19:29;18.80;99.90
2633;DHT22;1326;48.692;16.870;2023-09-08T07:21:57;18.90;99.90
2633;DHT22;1326;48.692;16.870;2023-09-08T07:24:24;19.00;99.90
2633;DHT22;1326;48.692;16.870;2023-09-08T07:26:52;19.10;99.90
2633;DHT22;1326;48.692;16.870;2023-09-08T07:29:19;19.10;99.90
2633;DHT22;1326;48.692;16.870;2023-09-08T07:31:47;19.30;99.90
2633;DHT22;1326;48.692;16.870;2023-09-08T07:34:14;19.30;99.90
2633;DHT22;1326;48.692;16.870;2023-09-08T07:36:42;19.40;99.90
2633;DHT22;1326;48.692;16.870;2023-09-08T07:39:10;19.50;99.90
2633;DHT22;1326;48.692;16.870;2023-09-08T07:41:38;19.60;99.90
2633;DHT22;1326;48.692;16.870;2023-09-08T07:44:09;19.70;99.90
2633;DHT22;1326;48.692;16.870;2023-09-08T07:46:37;19.80;99.90
2633;DHT22;1326;48.692;16.870;2023-09-08T07:49:04;20.00;99.90
2633;DHT22;1326;48.692;16.870;2023-09-08T07:51:32;20.10;99.90
2633;DHT22;1326;48.692;16.870;2023-09-08T07:53:59;20.20;99.90
2633;DHT22;1326;48.692;16.870;2023-09-08T07:56:28;20.30;99.90
2633;DHT22;1326;48.692;16.870;2023-09-08T07:58:56;20.40;99.90
2633;DHT22;1326;48.692;16.870;2023-09-08T08:01:23;20.50;99.90
2633;DHT22;1326;48.692;16.870;2023-09-08T08:03:51;20.60;99.90
2633;DHT22;1326;48.692;16.870;2023-09-08T08:06:19;20.80;99.90
2633;DHT22;1326;48.692;16.870;2023-09-08T08:08:47;20.90;99.90
2633;DHT22;1326;48.692;16.870;2023-09-08T08:11:16;21.00;99.90
2633;DHT22;1326;48.692;16.870;2023-09-08T08:13:46;21.10;99.90
2633;DHT22;1326;48.692;16.870;2023-09-08T08:16:14;21.20;99.90
2633;DHT22;1326;48.692;16.870;2023-09-08T08:18:42;21.30;99.90
2633;DHT22;1326;48.692;16.870;2023-09-08T08:21:09;21.40;99.90
2633;DHT22;1326;48.692;16.870;2023-09-08T08:23:37;21.50;99.90
2633;DHT22;1326;48.692;16.870;2023-09-08T08:26:05;21.60;99.90
2633;DHT22;1326;48.692;16.870;2023-09-08T08:28:33;21.70;99.90
2633;DHT22;1326;48.692;16.870;2023-09-08T08:31:01;21.90;99.90
2633;DHT22;1326;48.692;16.870;2023-09-08T08:33:29;21.90;99.90
2633;DHT22;1326;48.692;16.870;2023-09-08T08:35:57;22.10;99.90
2633;DHT22;1326;48.692;16.870;2023-09-08T08:38:24;22.20;99.90
2633;DHT22;1326;48.692;16.870;2023-09-08T08:40:52;22.20;99.90
2633;DHT22;1326;48.692;16.870;2023-09-08T08:43:21;22.30;99.90
2633;DHT22;1326;48.692;16.870;2023-09-08T08:45:49;22.50;99.90
2633;DHT22;1326;48.692;16.870;2023-09-08T08:48:19;22.60;99.90
2633;DHT22;1326;48.692;16.870;2023-09-08T08:50:47;22.70;99.90
2633;DHT22;1326;48.692;16.870;2023-09-08T08:53:17;22.80;99.90
2633;DHT22;1326;48.692;16.870;2023-09-08T08:55:45;22.90;99.90
2633;DHT22;1326;48.692;16.870;2023-09-08T08:58:13;23.00;99.90
2633;DHT22;1326;48.692;16.870;2023-09-08T09:00:42;23.10;99.90
2633;DHT22;1326;48.692;16.870;2023-09-08T09:03:10;23.20;99.90
2633;DHT22;1326;48.692;16.870;2023-09-08T09:05:38;23.20;99.90
2633;DHT22;1326;48.692;16.870;2023-09-08T09:08:06;23.30;99.90
2633;DHT22;1326;48.692;16.870;2023-09-08T09:10:34;23.40;99.90
2633;DHT22;1326;48.692;16.870;2023-09-08T09:13:01;23.50;99.90
2633;DHT22;1326;48.692;16.870;2023-09-08T09:15:30;23.60;99.90
2633;DHT22;1326;48.692;16.870;2023-09-08T09:18:06;23.70;99.90
2633;DHT22;1326;48.692;16.870;2023-09-08T09:20:34;23.80;99.90
2633;DHT22;1326;48.692;16.870;2023-09-08T09:23:02;23.90;99.90
2633;DHT22;1326;48.692;16.870;2023-09-08T09:25:31;24.10;99.90
2633;DHT22;1326;48.692;16.870;2023-09-08T09:28:00;24.20;99.90
2633;DHT22;1326;48.692;16.870;2023-09-08T09:30:52;24.40;99.90
2633;DHT22;1326;48.692;16.870;2023-09-08T09:33:03;24.50;99.90
2633;DHT22;1326;48.692;16.870;2023-09-08T09:35:45;24.60;99.90
2633;DHT22;1326;48.692;16.870;2023-09-08T09:38:14;24.70;99.90
2633;DHT22;1326;48.692;16.870;2023-09-08T09:40:42;24.70;99.90
2633;DHT22;1326;48.692;16.870;2023-09-08T09:43:10;24.70;99.90
2633;DHT22;1326;48.692;16.870;2023-09-08T09:45:39;24.80;99.90
2633;DHT22;1326;48.692;16.870;2023-09-08T09:48:09;24.90;99.90
2633;DHT22;1326;48.692;16.870;2023-09-08T09:50:39;25.00;99.90
2633;DHT22;1326;48.692;16.870;2023-09-08T09:53:14;25.10;99.90
2633;DHT22;1326;48.692;16.870;2023-09-08T09:55:43;25.10;99.90
2633;DHT22;1326;48.692;16.870;2023-09-08T09:58:12;25.20;99.90
2633;DHT22;1326;48.692;16.870;2023-09-08T10:00:40;25.20;99.90
2633;DHT22;1326;48.692;16.870;2023-09-08T10:03:10;25.20;99.90
2633;DHT22;1326;48.692;16.870;2023-09-08T10:05:38;25.30;99.90
2633;DHT22;1326;48.692;16.870;2023-09-08T10:08:06;25.30;99.90
2633;DHT22;1326;48.692;16.870;2023-09-08T10:10:34;25.40;99.90
2633;DHT22;1326;48.692;16.870;2023-09-08T10:13:06;25.50;99.90
2633;DHT22;1326;48.692;16.870;2023-09-08T10:15:34;25.60;98.70
2633;DHT22;1326;48.692;16.870;2023-09-08T10:18:05;25.70;98.10
2633;DHT22;1326;48.692;16.870;2023-09-08T10:20:33;25.70;97.00
2633;DHT22;1326;48.692;16.870;2023-09-08T10:23:23;25.80;95.90
2633;DHT22;1326;48.692;16.870;2023-09-08T10:25:48;25.80;95.90
2633;DHT22;1326;48.692;16.870;2023-09-08T10:28:18;25.90;95.20
2633;DHT22;1326;48.692;16.870;2023-09-08T10:30:47;25.90;94.70
2633;DHT22;1326;48.692;16.870;2023-09-08T10:33:16;26.00;94.30
2633;DHT22;1326;48.692;16.870;2023-09-08T10:35:44;26.00;94.20
2633;DHT22;1326;48.692;16.870;2023-09-08T10:38:29;26.10;94.50
2633;DHT22;1326;48.692;16.870;2023-09-08T10:43:56;26.10;94.10
2633;DHT22;1326;48.692;16.870;2023-09-08T10:46:23;26.30;93.60
2633;DHT22;1326;48.692;16.870;2023-09-08T10:48:53;26.40;93.90
2633;DHT22;1326;48.692;16.870;2023-09-08T10:51:22;26.40;93.10
2633;DHT22;1326;48.692;16.870;2023-09-08T10:53:51;26.40;92.90
2633;DHT22;1326;48.692;16.870;2023-09-08T10:56:19;26.40;92.30
2633;DHT22;1326;48.692;16.870;2023-09-08T10:58:53;26.40;92.80
2633;DHT22;1326;48.692;16.870;2023-09-08T11:01:21;26.50;92.50
2633;DHT22;1326;48.692;16.870;2023-09-08T11:03:51;26.50;92.80
2633;DHT22;1326;48.692;16.870;2023-09-08T11:06:20;26.40;92.20
2633;DHT22;1326;48.692;16.870;2023-09-08T11:08:52;26.40;92.70
2633;DHT22;1326;48.692;16.870;2023-09-08T11:11:21;26.50;92.10
2633;DHT22;1326;48.692;16.870;2023-09-08T11:13:49;26.50;92.20
2633;DHT22;1326;48.692;16.870;2023-09-08T11:16:16;26.50;92.20
2633;DHT22;1326;48.692;16.870;2023-09-08T11:18:46;26.50;91.50
2633;DHT22;1326;48.692;16.870;2023-09-08T11:21:13;26.40;91.40
2633;DHT22;1326;48.692;16.870;2023-09-08T11:23:41;26.40;91.40
2633;DHT22;1326;48.692;16.870;2023-09-08T11:26:09;26.40;91.50
2633;DHT22;1326;48.692;16.870;2023-09-08T11:28:38;26.40;91.80
2633;DHT22;1326;48.692;16.870;2023-09-08T11:31:06;26.40;92.20
2633;DHT22;1326;48.692;16.870;2023-09-08T11:33:35;26.50;92.10
2633;DHT22;1326;48.692;16.870;2023-09-08T11:36:12;26.50;91.40
2633;DHT22;1326;48.692;16.870;2023-09-08T11:38:43;26.60;91.80
2633;DHT22;1326;48.692;16.870;2023-09-08T11:41:11;26.70;91.60
2633;DHT22;1326;48.692;16.870;2023-09-08T11:43:39;27.00;91.40
2633;DHT22;1326;48.692;16.870;2023-09-08T11:46:07;27.50;90.30
2633;DHT22;1326;48.692;16.870;2023-09-08T11:48:37;27.90;89.00
2633;DHT22;1326;48.692;16.870;2023-09-08T11:51:07;28.50;85.60
2633;DHT22;1326;48.692;16.870;2023-09-08T11:53:36;28.80;84.40
2633;DHT22;1326;48.692;16.870;2023-09-08T11:56:04;29.30;81.50
2633;DHT22;1326;48.692;16.870;2023-09-08T11:58:33;29.50;80.20
2633;DHT22;1326;48.692;16.870;2023-09-08T12:01:01;30.10;79.70
2633;DHT22;1326;48.692;16.870;2023-09-08T12:03:29;30.40;76.10
2633;DHT22;1326;48.692;16.870;2023-09-08T12:05:57;30.80;72.70
2633;DHT22;1326;48.692;16.870;2023-09-08T12:08:25;31.10;70.80
2633;DHT22;1326;48.692;16.870;2023-09-08T12:10:54;31.10;67.00
2633;DHT22;1326;48.692;16.870;2023-09-08T12:13:23;31.10;66.40
2633;DHT22;1326;48.692;16.870;2023-09-08T12:15:50;31.00;67.00
2633;DHT22;1326;48.692;16.870;2023-09-08T12:18:18;30.90;67.70
2633;DHT22;1326;48.692;16.870;2023-09-08T12:20:46;30.90;64.80
2633;DHT22;1326;48.692;16.870;2023-09-08T12:23:21;30.90;62.50
2633;DHT22;1326;48.692;16.870;2023-09-08T12:25:51;30.70;62.40
2633;DHT22;1326;48.692;16.870;2023-09-08T12:28:20;30.60;62.40
2633;DHT22;1326;48.692;16.870;2023-09-08T12:30:50;30.40;61.70
2633;DHT22;1326;48.692;16.870;2023-09-08T12:33:17;30.30;62.50
2633;DHT22;1326;48.692;16.870;2023-09-08T12:35:47;29.90;63.90
2633;DHT22;1326;48.692;16.870;2023-09-08T12:38:19;29.70;64.70
2633;DHT22;1326;48.692;16.870;2023-09-08T12:40:47;29.60;63.50
2633;DHT22;1326;48.692;16.870;2023-09-08T12:43:15;29.70;64.30
2633;DHT22;1326;48.692;16.870;2023-09-08T12:45:43;29.60;59.80
2633;DHT22;1326;48.692;16.870;2023-09-08T12:48:12;29.60;63.20
2633;DHT22;1326;48.692;16.870;2023-09-08T12:50:39;29.60;63.40
2633;DHT22;1326;48.692;16.870;2023-09-08T12:53:07;29.50;63.40
2633;DHT22;1326;48.692;16.870;2023-09-08T12:55:34;29.30;62.80
2633;DHT22;1326;48.692;16.870;2023-09-08T12:58:02;29.30;63.60
2633;DHT22;1326;48.692;16.870;2023-09-08T13:00:29;29.20;63.00
2633;DHT22;1326;48.692;16.870;2023-09-08T13:02:57;29.20;63.70
2633;DHT22;1326;48.692;16.870;2023-09-08T13:05:24;29.10;63.20
2633;DHT22;1326;48.692;16.870;2023-09-08T13:07:52;29.00;64.00
2633;DHT22;1326;48.692;16.870;2023-09-08T13:10:19;29.00;64.00
2633;DHT22;1326;48.692;16.870;2023-09-08T13:12:47;28.90;63.80
2633;DHT22;1326;48.692;16.870;2023-09-08T13:15:15;28.80;63.40
2633;DHT22;1326;48.692;16.870;2023-09-08T13:17:43;28.70;64.90
2633;DHT22;1326;48.692;16.870;2023-09-08T13:20:11;28.70;63.90
2633;DHT22;1326;48.692;16.870;2023-09-08T13:22:39;28.60;65.70
2633;DHT22;1326;48.692;16.870;2023-09-08T13:25:07;28.60;66.20
2633;DHT22;1326;48.692;16.870;2023-09-08T13:27:34;28.50;65.80
2633;DHT22;1326;48.692;16.870;2023-09-08T13:30:13;28.50;65.80
2633;DHT22;1326;48.692;16.870;2023-09-08T13:32:41;28.40;65.90
2633;DHT22;1326;48.692;16.870;2023-09-08T13:35:09;28.40;66.50
2633;DHT22;1326;48.692;16.870;2023-09-08T13:37:36;28.40;66.00
2633;DHT22;1326;48.692;16.870;2023-09-08T13:40:09;28.40;65.30
2633;DHT22;1326;48.692;16.870;2023-09-08T13:42:36;28.40;66.40
2633;DHT22;1326;48.692;16.870;2023-09-08T13:45:05;28.40;65.10
2633;DHT22;1326;48.692;16.870;2023-09-08T13:47:32;28.40;67.20
2633;DHT22;1326;48.692;16.870;2023-09-08T13:50:02;28.40;66.00
2633;DHT22;1326;48.692;16.870;2023-09-08T13:52:29;28.40;66.00
2633;DHT22;1326;48.692;16.870;2023-09-08T13:54:57;28.40;66.70
2633;DHT22;1326;48.692;16.870;2023-09-08T13:57:25;28.30;66.00
2633;DHT22;1326;48.692;16.870;2023-09-08T13:59:53;28.30;64.30
2633;DHT22;1326;48.692;16.870;2023-09-08T14:02:21;28.30;64.20
2633;DHT22;1326;48.692;16.870;2023-09-08T14:04:48;28.30;65.20
2633;DHT22;1326;48.692;16.870;2023-09-08T14:07:16;28.40;65.80
2633;DHT22;1326;48.692;16.870;2023-09-08T14:09:43;28.40;67.10
2633;DHT22;1326;48.692;16.870;2023-09-08T14:12:11;28.40;66.50
2633;DHT22;1326;48.692;16.870;2023-09-08T14:14:38;28.40;66.30
2633;DHT22;1326;48.692;16.870;2023-09-08T14:17:06;28.30;64.20
2633;DHT22;1326;48.692;16.870;2023-09-08T14:19:33;28.30;64.70
2633;DHT22;1326;48.692;16.870;2023-09-08T14:22:01;28.20;64.30
2633;DHT22;1326;48.692;16.870;2023-09-08T14:24:29;28.20;62.70
2633;DHT22;1326;48.692;16.870;2023-09-08T14:26:56;28.30;62.60
2633;DHT22;1326;48.692;16.870;2023-09-08T14:29:24;28.40;63.80
2633;DHT22;1326;48.692;16.870;2023-09-08T14:31:51;28.40;63.40
2633;DHT22;1326;48.692;16.870;2023-09-08T14:34:19;28.40;64.00
2633;DHT22;1326;48.692;16.870;2023-09-08T14:36:47;28.40;64.00
2633;DHT22;1326;48.692;16.870;2023-09-08T14:39:16;28.40;63.80
2633;DHT22;1326;48.692;16.870;2023-09-08T14:41:48;28.40;64.80
2633;DHT22;1326;48.692;16.870;2023-09-08T14:44:20;28.40;64.50
2633;DHT22;1326;48.692;16.870;2023-09-08T14:46:50;28.40;64.70
2633;DHT22;1326;48.692;16.870;2023-09-08T14:49:18;28.40;64.20
2633;DHT22;1326;48.692;16.870;2023-09-08T14:51:45;28.40;63.80
2633;DHT22;1326;48.692;16.870;2023-09-08T14:54:13;28.40;63.70
2633;DHT22;1326;48.692;16.870;2023-09-08T14:56:41;28.40;63.10
2633;DHT22;1326;48.692;16.870;2023-09-08T14:59:08;28.40;64.00
2633;DHT22;1326;48.692;16.870;2023-09-08T15:01:36;28.40;63.20
2633;DHT22;1326;48.692;16.870;2023-09-08T15:04:06;28.40;63.60
2633;DHT22;1326;48.692;16.870;2023-09-08T15:06:33;28.40;64.70
2633;DHT22;1326;48.692;16.870;2023-09-08T15:09:01;28.40;64.90
2633;DHT22;1326;48.692;16.870;2023-09-08T15:11:28;28.50;65.00
2633;DHT22;1326;48.692;16.870;2023-09-08T15:13:56;28.50;64.20
2633;DHT22;1326;48.692;16.870;2023-09-08T15:16:23;28.50;63.50
2633;DHT22;1326;48.692;16.870;2023-09-08T15:18:51;28.50;63.00
2633;DHT22;1326;48.692;16.870;2023-09-08T15:21:18;28.50;62.00
2633;DHT22;1326;48.692;16.870;2023-09-08T15:23:47;28.50;63.00
2633;DHT22;1326;48.692;16.870;2023-09-08T15:26:15;28.50;62.90
2633;DHT22;1326;48.692;16.870;2023-09-08T15:28:43;28.40;63.20
2633;DHT22;1326;48.692;16.870;2023-09-08T15:31:14;28.40;62.60
2633;DHT22;1326;48.692;16.870;2023-09-08T15:33:40;28.40;62.70
2633;DHT22;1326;48.692;16.870;2023-09-08T15:36:08;28.50;64.30
2633;DHT22;1326;48.692;16.870;2023-09-08T15:38:35;28.40;62.90
2633;DHT22;1326;48.692;16.870;2023-09-08T15:43:40;28.40;63.90
2633;DHT22;1326;48.692;16.870;2023-09-08T15:46:08;28.40;64.30
2633;DHT22;1326;48.692;16.870;2023-09-08T15:48:36;28.30;63.60
2633;DHT22;1326;48.692;16.870;2023-09-08T15:51:06;28.20;63.90
2633;DHT22;1326;48.692;16.870;2023-09-08T15:53:34;28.10;64.60
2633;DHT22;1326;48.692;16.870;2023-09-08T15:56:02;28.00;62.60
2633;DHT22;1326;48.692;16.870;2023-09-08T15:58:29;28.00;63.90
2633;DHT22;1326;48.692;16.870;2023-09-08T16:00:57;27.80;65.00